createdAt,value
2018-07-19T00:00:38.046Z,99997.31
2018-07-19T00:03:05.768Z,100004.84
2018-07-19T00:05:33.458Z,100007.69
2018-07-19T00:08:01.109Z,100002.77
2018-07-19T00:10:28.790Z,100006.83
2018-07-19T00:12:56.417Z,100012.33
2018-07-19T00:15:24.097Z,100009.19
2018-07-19T00:17:51.763Z,100011.13
2018-07-19T00:20:19.418Z,100019.19
2018-07-19T00:22:47.117Z,100022.53
2018-07-19T00:25:14.871Z,100023.13
2018-07-19T00:27:42.609Z,100026.24
2018-07-19T00:30:10.247Z,100026.77
2018-07-19T00:32:37.944Z,100025.59
2018-07-19T00:35:05.581Z,100027.61
2018-07-19T00:37:33.282Z,100024.30
2018-07-19T00:40:01.053Z,100032.52
2018-07-19T00:42:29.522Z,100025.74
2018-07-19T00:44:57.390Z,100024.70
2018-07-19T00:47:25.082Z,100024.11
2018-07-19T00:49:52.801Z,100015.41
2018-07-19T00:52:20.499Z,100017.88
2018-07-19T00:54:48.205Z,100020.53
2018-07-19T00:57:15.921Z,100025.39
2018-07-19T00:59:43.565Z,100029.43
2018-07-19T01:02:11.244Z,100023.87
2018-07-19T01:04:38.939Z,100026.41
2018-07-19T01:07:06.686Z,100019.76
2018-07-19T01:09:34.463Z,100020.56
2018-07-19T01:12:02.297Z,100014.73
2018-07-19T01:14:29.981Z,100015.41
2018-07-19T01:16:57.749Z,100018.63
2018-07-19T01:19:25.504Z,100017.54
2018-07-19T01:21:53.203Z,100014.83
2018-07-19T01:24:20.913Z,100014.56
2018-07-19T01:26:48.594Z,100015.31
2018-07-19T01:29:16.374Z,100012.52
2018-07-19T01:31:44.126Z,100014.66
2018-07-19T01:34:11.765Z,100017.25
2018-07-19T01:36:39.464Z,100018.30
2018-07-19T01:39:08.747Z,100017.45
2018-07-19T01:42:24.208Z,100017.89
2018-07-19T01:44:51.857Z,100012.09
2018-07-19T01:47:19.572Z,100010.39
2018-07-19T01:49:48.231Z,100014.14
2018-07-19T01:52:15.940Z,100011.14
2018-07-19T01:54:43.701Z,100012.76
2018-07-19T01:57:12.431Z,100009.53
2018-07-19T01:59:40.837Z,100009.30
2018-07-19T02:02:08.504Z,100007.10
2018-07-19T02:04:36.241Z,100011.58
2018-07-19T02:07:03.953Z,100011.17
2018-07-19T02:09:31.705Z,100010.57
2018-07-19T02:12:05.825Z,100009.13
2018-07-19T02:14:33.487Z,100017.58
2018-07-19T02:17:01.422Z,100018.42
2018-07-19T02:19:29.181Z,100019.14
2018-07-19T02:21:56.830Z,100014.80
2018-07-19T02:24:24.482Z,100021.67
2018-07-19T02:26:52.170Z,100018.27
2018-07-19T02:29:19.965Z,100019.30
2018-07-19T02:31:47.722Z,100016.20
2018-07-19T02:34:15.378Z,100018.22
2018-07-19T02:36:43.161Z,100019.75
2018-07-19T02:39:12.128Z,100022.20
2018-07-19T02:41:40.209Z,100019.39
2018-07-19T02:44:09.185Z,100016.69
2018-07-19T02:46:37.872Z,100015.43
2018-07-19T02:49:05.680Z,100020.73
2018-07-19T02:51:33.329Z,100011.58
2018-07-19T02:54:00.969Z,100020.00
2018-07-19T02:56:28.612Z,100012.23
2018-07-19T02:58:56.237Z,100015.27
2018-07-19T03:01:23.973Z,100008.19
2018-07-19T03:03:51.701Z,100014.75
2018-07-19T03:06:19.418Z,100013.72
2018-07-19T03:08:47.077Z,100005.10
2018-07-19T03:11:14.749Z,100001.48
2018-07-19T03:13:42.393Z,100000.89
2018-07-19T03:16:10.110Z,99999.34
2018-07-19T03:18:37.841Z,99994.34
2018-07-19T03:21:05.564Z,99996.98
2018-07-19T03:23:33.201Z,100002.45
2018-07-19T03:26:00.857Z,99995.14
2018-07-19T03:28:28.526Z,99994.05
2018-07-19T03:30:56.237Z,99993.75
2018-07-19T03:33:23.877Z,99995.95
2018-07-19T03:35:51.473Z,99997.80
2018-07-19T03:38:19.217Z,99997.06
2018-07-19T03:40:47.020Z,99999.27
2018-07-19T03:43:14.688Z,100001.48
2018-07-19T03:45:42.375Z,99999.88
2018-07-19T03:48:10.045Z,100004.45
2018-07-19T03:50:37.682Z,100003.64
2018-07-19T03:53:05.401Z,99999.89
2018-07-19T03:55:33.025Z,99997.64
2018-07-19T03:58:00.700Z,100004.94
2018-07-19T04:00:28.382Z,100002.59
2018-07-19T04:02:56.179Z,100007.30
2018-07-19T04:05:23.829Z,100003.89
2018-07-19T04:07:51.441Z,100006.40
2018-07-19T04:10:19.140Z,100004.58
2018-07-19T04:12:46.889Z,100003.91
2018-07-19T04:15:14.535Z,100008.85
2018-07-19T04:17:57.825Z,100006.11
2018-07-19T04:20:26.570Z,100010.01
2018-07-19T04:22:54.834Z,100009.14
2018-07-19T04:25:23.017Z,100006.80
2018-07-19T04:27:50.893Z,100007.88
2018-07-19T04:30:18.533Z,100011.13
2018-07-19T04:32:46.237Z,100012.09
2018-07-19T04:35:14.049Z,100018.88
2018-07-19T04:37:41.716Z,100021.45
2018-07-19T04:40:09.341Z,100022.31
2018-07-19T04:42:37.124Z,100023.47
2018-07-19T04:45:05.261Z,100022.87
2018-07-19T04:47:32.892Z,100027.42
2018-07-19T04:50:00.537Z,100023.72
2018-07-19T04:52:28.156Z,100025.19
2018-07-19T04:54:56.242Z,100027.90
2018-07-19T04:57:23.933Z,100021.00
2018-07-19T04:59:51.976Z,100021.89
2018-07-19T05:02:19.999Z,100023.48
2018-07-19T05:04:47.641Z,100023.14
2018-07-19T05:07:15.308Z,100020.02
2018-07-19T05:09:43.394Z,100022.66
2018-07-19T05:12:11.077Z,100021.20
2018-07-19T05:14:38.876Z,100028.62
2018-07-19T05:17:06.561Z,100029.59
2018-07-19T05:19:34.257Z,100037.90
2018-07-19T05:22:01.921Z,100033.33
2018-07-19T05:24:29.570Z,100022.94
2018-07-19T05:26:57.269Z,100023.09
2018-07-19T05:29:24.974Z,100018.16
2018-07-19T05:31:52.681Z,100023.00
2018-07-19T05:34:20.345Z,100023.94
2018-07-19T05:36:47.977Z,100020.42
2018-07-19T05:39:15.615Z,100030.20
2018-07-19T05:41:43.353Z,100023.73
2018-07-19T05:44:11.517Z,100019.15
2018-07-19T05:46:39.345Z,100026.92
2018-07-19T05:49:06.996Z,100030.28
2018-07-19T05:51:34.737Z,100028.86
2018-07-19T05:54:02.462Z,100026.76
2018-07-19T05:56:30.098Z,100023.23
2018-07-19T05:58:57.859Z,100028.64
2018-07-19T06:01:25.557Z,100025.95
2018-07-19T06:03:53.526Z,100031.34
2018-07-19T06:06:21.589Z,100029.19
2018-07-19T06:08:49.270Z,100033.37
2018-07-19T06:11:17.341Z,100032.09
2018-07-19T06:13:45.108Z,100026.93
2018-07-19T06:16:12.832Z,100024.56
2018-07-19T06:18:40.597Z,100024.50
2018-07-19T06:21:08.238Z,100020.81
2018-07-19T06:23:35.961Z,100025.41
2018-07-19T06:26:03.802Z,100025.76
2018-07-19T06:28:31.436Z,100022.59
2018-07-19T06:30:59.182Z,100018.66
2018-07-19T06:33:27.029Z,100021.62
2018-07-19T06:35:54.735Z,100027.70
2018-07-19T06:38:22.466Z,100025.09
2018-07-19T06:40:50.197Z,100023.83
2018-07-19T06:43:17.833Z,100027.84
2018-07-19T06:45:45.502Z,100021.92
2018-07-19T06:48:19.728Z,100021.13
2018-07-19T06:50:47.357Z,100020.53
2018-07-19T06:53:15.053Z,100023.49
2018-07-19T06:55:42.805Z,100025.62
2018-07-19T06:58:10.473Z,100033.13
2018-07-19T07:00:38.121Z,100037.08
2018-07-19T07:03:05.998Z,100033.51
2018-07-19T07:05:33.686Z,100032.66
2018-07-19T07:08:01.298Z,100030.73
2018-07-19T07:10:36.317Z,100034.20
2018-07-19T07:13:04.064Z,100027.44
2018-07-19T07:15:31.829Z,100026.39
2018-07-19T07:17:59.568Z,100019.16
2018-07-19T07:20:27.209Z,100019.12
2018-07-19T07:22:56.042Z,100017.98
2018-07-19T07:25:23.783Z,100022.22
2018-07-19T07:27:51.561Z,100015.69
2018-07-19T07:30:19.223Z,100018.95
2018-07-19T07:32:46.860Z,100016.38
2018-07-19T07:35:14.601Z,100014.20
2018-07-19T07:37:42.218Z,100011.28
2018-07-19T07:40:10.729Z,100006.19
2018-07-19T07:42:38.350Z,100012.55
2018-07-19T07:45:06.030Z,100018.90
2018-07-19T07:47:33.644Z,100021.30
2018-07-19T07:50:01.326Z,100014.98
2018-07-19T07:52:28.930Z,100011.64
2018-07-19T07:54:56.902Z,100013.02
2018-07-19T07:57:24.677Z,100012.73
2018-07-19T07:59:52.406Z,100017.27
2018-07-19T08:02:20.057Z,100017.32
2018-07-19T08:04:47.701Z,100014.33
2018-07-19T08:07:15.358Z,100010.59
2018-07-19T08:09:43.056Z,100016.77
2018-07-19T08:12:10.930Z,100014.02
2018-07-19T08:14:38.685Z,100009.36
2018-07-19T08:17:06.426Z,100010.61
2018-07-19T08:19:34.089Z,100019.20
2018-07-19T08:22:01.761Z,100007.92
2018-07-19T08:24:29.405Z,100013.39
2018-07-19T08:26:57.101Z,100012.04
2018-07-19T08:29:24.844Z,100019.20
2018-07-19T08:31:52.548Z,100015.39
2018-07-19T08:34:20.165Z,100015.11
2018-07-19T08:36:47.808Z,100016.86
2018-07-19T08:39:15.423Z,100015.15
2018-07-19T08:41:44.149Z,100024.36
2018-07-19T08:44:11.742Z,100025.33
2018-07-19T08:46:39.428Z,100021.62
2018-07-19T08:49:07.151Z,100027.31
2018-07-19T08:51:34.883Z,100036.71
2018-07-19T08:54:02.635Z,100032.08
2018-07-19T08:56:30.356Z,100024.47
2018-07-19T08:58:58.255Z,100026.34
2018-07-19T09:01:25.965Z,100027.30
2018-07-19T09:03:53.658Z,100021.16
2018-07-19T09:06:21.339Z,100024.30
2018-07-19T09:08:48.973Z,100024.00
2018-07-19T09:11:16.973Z,100022.90
2018-07-19T09:13:44.764Z,100021.13
2018-07-19T09:16:12.453Z,100024.20
2018-07-19T09:18:40.150Z,100025.06
2018-07-19T09:21:08.025Z,100021.97
2018-07-19T09:23:35.678Z,100018.55
2018-07-19T09:26:03.351Z,100020.77
2018-07-19T09:28:30.965Z,100017.91
2018-07-19T09:30:58.653Z,100017.70
2018-07-19T09:33:26.326Z,100017.46
2018-07-19T09:35:54.004Z,100012.20
2018-07-19T09:38:22.064Z,100014.28
2018-07-19T09:40:49.633Z,100007.78
2018-07-19T09:43:17.285Z,100000.50
2018-07-19T09:45:44.993Z,100004.97
2018-07-19T09:48:12.623Z,100006.33
2018-07-19T09:50:40.273Z,100002.52
2018-07-19T09:53:07.913Z,100002.80
2018-07-19T09:55:35.636Z,100002.49
2018-07-19T09:58:03.291Z,100002.66
2018-07-19T10:00:37.475Z,99998.45
2018-07-19T10:03:05.231Z,99995.09
2018-07-19T10:05:32.929Z,99990.75
2018-07-19T10:08:00.597Z,99996.82
2018-07-19T10:10:35.660Z,99993.01
2018-07-19T10:13:03.449Z,99987.63
2018-07-19T10:15:31.187Z,99989.12
2018-07-19T10:17:58.789Z,99988.13
2018-07-19T10:20:26.438Z,99988.64
2018-07-19T10:22:54.065Z,99985.17
2018-07-19T10:25:21.802Z,99982.19
2018-07-19T10:27:49.440Z,99979.72
2018-07-19T10:30:17.155Z,99984.45
2018-07-19T10:32:44.812Z,99975.47
2018-07-19T10:35:12.481Z,99977.77
2018-07-19T10:37:40.179Z,99970.17
2018-07-19T10:40:07.829Z,99971.53
2018-07-19T10:42:35.585Z,99966.73
2018-07-19T10:45:03.256Z,99979.36
2018-07-19T10:47:30.954Z,99971.89
2018-07-19T10:49:58.662Z,99969.63
2018-07-19T10:52:26.342Z,99969.81
2018-07-19T10:54:54.037Z,99971.90
2018-07-19T10:57:21.709Z,99971.00
2018-07-19T10:59:49.356Z,99967.97
2018-07-19T11:02:24.061Z,99970.19
2018-07-19T11:04:51.753Z,99963.87
2018-07-19T11:07:19.445Z,99962.50
2018-07-19T11:09:47.457Z,99967.03
2018-07-19T11:12:15.138Z,99968.02
2018-07-19T11:14:42.818Z,99962.59
2018-07-19T11:17:10.508Z,99961.28
2018-07-19T11:19:38.138Z,99959.41
2018-07-19T11:22:06.201Z,99958.55
2018-07-19T11:24:33.809Z,99956.72
2018-07-19T11:27:01.594Z,99956.83
2018-07-19T11:29:29.196Z,99950.67
2018-07-19T11:31:56.849Z,99946.45
2018-07-19T11:34:24.508Z,99948.52
2018-07-19T11:36:52.872Z,99941.54
2018-07-19T11:39:20.596Z,99942.38
2018-07-19T11:41:48.352Z,99946.98
2018-07-19T11:44:16.030Z,99939.70
2018-07-19T11:46:43.888Z,99945.23
2018-07-19T11:49:11.499Z,99936.12
2018-07-19T11:51:39.190Z,99936.24
2018-07-19T11:54:06.849Z,99931.77
2018-07-19T11:56:34.489Z,99939.03
2018-07-19T11:59:02.272Z,99935.55
2018-07-19T12:01:29.921Z,99915.81
2018-07-19T12:03:57.556Z,99927.00
2018-07-19T12:06:27.426Z,99920.54
2018-07-19T12:08:55.078Z,99912.05
2018-07-19T12:11:22.757Z,99905.53
2018-07-19T12:13:50.410Z,99893.69
2018-07-19T12:16:18.354Z,99906.50
2018-07-19T12:18:46.022Z,99895.89
2018-07-19T12:21:13.635Z,99894.70
2018-07-19T12:23:41.366Z,99893.72
2018-07-19T12:26:09.010Z,99893.84
2018-07-19T12:28:36.670Z,99898.59
2018-07-19T12:31:04.375Z,99894.89
2018-07-19T12:33:32.065Z,99897.34
2018-07-19T12:35:59.758Z,99895.95
2018-07-19T12:38:27.429Z,99881.43
2018-07-19T12:40:55.073Z,99887.92
2018-07-19T12:43:22.785Z,99886.39
2018-07-19T12:45:50.461Z,99883.33
2018-07-19T12:48:18.241Z,99874.27
2018-07-19T12:50:45.970Z,99885.75
2018-07-19T12:53:13.603Z,99874.72
2018-07-19T12:55:41.301Z,99873.69
2018-07-19T12:58:08.929Z,99872.70
2018-07-19T13:00:36.592Z,99876.22
2018-07-19T13:03:04.213Z,99874.14
2018-07-19T13:05:31.962Z,99868.48
2018-07-19T13:07:59.566Z,99870.23
2018-07-19T13:10:42.253Z,99872.45
2018-07-19T13:13:09.896Z,99864.83
2018-07-19T13:15:37.645Z,99861.20
2018-07-19T13:18:05.328Z,99863.58
2018-07-19T13:20:33.145Z,99865.56
2018-07-19T13:23:00.858Z,99866.06
2018-07-19T13:25:28.498Z,99862.82
2018-07-19T13:27:56.167Z,99860.52
2018-07-19T13:30:23.846Z,99860.05
2018-07-19T13:32:51.545Z,99863.90
2018-07-19T13:35:19.245Z,99869.94
2018-07-19T13:37:46.877Z,99865.34
2018-07-19T13:40:14.656Z,99858.18
2018-07-19T13:42:42.348Z,99856.23
2018-07-19T13:45:10.042Z,99860.30
2018-07-19T13:47:38.483Z,99855.23
2018-07-19T13:50:06.212Z,99858.55
2018-07-19T13:52:51.394Z,99855.70
2018-07-19T13:55:19.091Z,99864.58
2018-07-19T13:57:46.746Z,99859.17
2018-07-19T14:00:14.382Z,99854.63
2018-07-19T14:02:42.076Z,99847.10
2018-07-19T14:05:09.717Z,99847.17
2018-07-19T14:07:37.341Z,99844.87
2018-07-19T14:12:51.897Z,99841.95
2018-07-19T14:15:19.562Z,99833.56
2018-07-19T14:17:47.244Z,99827.05
2018-07-19T14:20:14.885Z,99832.89
2018-07-19T14:22:42.581Z,99827.50
2018-07-19T14:25:10.226Z,99815.95
2018-07-19T14:27:37.921Z,99817.91
2018-07-19T14:30:06.105Z,99811.46
2018-07-19T14:32:33.776Z,99812.57
2018-07-19T14:35:02.168Z,99802.98
2018-07-19T14:37:29.810Z,99805.26
2018-07-19T14:39:57.502Z,99804.91
2018-07-19T14:42:25.261Z,99800.54
2018-07-19T14:44:52.926Z,99801.11
2018-07-19T14:47:20.562Z,99806.85
2018-07-19T14:49:48.197Z,99798.31
2018-07-19T14:52:15.949Z,99801.88
2018-07-19T14:54:43.666Z,99802.50
2018-07-19T14:57:11.286Z,99803.87
2018-07-19T14:59:39.017Z,99794.23
2018-07-19T15:02:06.691Z,99796.03
2018-07-19T15:04:34.421Z,99800.69
2018-07-19T15:07:02.069Z,99796.58
2018-07-19T15:09:29.718Z,99794.97
2018-07-19T15:11:57.517Z,99790.73
2018-07-19T15:14:25.173Z,99791.12
2018-07-19T15:16:52.860Z,99789.94
2018-07-19T15:19:20.513Z,99794.48
2018-07-19T15:21:48.187Z,99781.09
2018-07-19T15:24:15.983Z,99785.47
2018-07-19T15:26:43.706Z,99779.91
2018-07-19T15:29:11.306Z,99774.78
2018-07-19T15:31:39.267Z,99773.20
2018-07-19T15:34:06.996Z,99773.45
2018-07-19T15:36:34.684Z,99770.90
2018-07-19T15:39:02.418Z,99766.12
2018-07-19T15:41:30.069Z,99762.36
2018-07-19T15:43:57.714Z,99767.80
2018-07-19T15:46:25.420Z,99767.23
2018-07-19T15:48:53.162Z,99767.70
2018-07-19T15:51:20.805Z,99765.06
2018-07-19T15:53:48.448Z,99762.67
2018-07-19T15:56:16.213Z,99770.34
2018-07-19T15:58:43.831Z,99761.00
2018-07-19T16:01:11.483Z,99757.15
2018-07-19T16:03:39.193Z,99752.21
2018-07-19T16:06:06.845Z,99754.03
2018-07-19T16:08:34.498Z,99755.02
2018-07-19T16:11:02.314Z,99751.78
2018-07-19T16:13:29.952Z,99750.30
2018-07-19T16:15:57.895Z,99751.55
2018-07-19T16:18:25.602Z,99754.02
2018-07-19T16:20:53.262Z,99755.29
2018-07-19T16:23:20.925Z,99749.08
2018-07-19T16:25:48.573Z,99758.56
2018-07-19T16:28:16.269Z,99749.96
2018-07-19T16:30:43.993Z,99755.06
2018-07-19T16:33:11.666Z,99750.52
2018-07-19T16:35:39.350Z,99746.72
2018-07-19T16:38:07.026Z,99745.55
2018-07-19T16:40:34.791Z,99748.05
2018-07-19T16:43:02.581Z,99742.73
2018-07-19T16:45:30.197Z,99739.91
2018-07-19T16:47:57.862Z,99740.08
2018-07-19T16:50:25.497Z,99735.75
2018-07-19T16:52:53.212Z,99743.90
2018-07-19T16:55:20.838Z,99733.13
2018-07-19T16:57:48.462Z,99734.56
2018-07-19T17:00:16.686Z,99737.69
2018-07-19T17:02:44.356Z,99740.95
2018-07-19T17:05:11.970Z,99744.00
2018-07-19T17:07:39.665Z,99740.52
2018-07-19T17:10:34.963Z,99737.48
2018-07-19T17:13:02.638Z,99735.98
2018-07-19T17:15:30.227Z,99732.81
2018-07-19T17:17:57.849Z,99742.23
2018-07-19T17:20:25.550Z,99731.09
2018-07-19T17:22:53.185Z,99735.48
2018-07-19T17:25:20.797Z,99731.71
2018-07-19T17:27:48.542Z,99730.67
2018-07-19T17:30:16.209Z,99732.28
2018-07-19T17:32:43.852Z,99731.94
2018-07-19T17:35:11.621Z,99734.48
2018-07-19T17:37:39.242Z,99733.41
2018-07-19T17:40:07.005Z,99732.06
2018-07-19T17:42:35.024Z,99734.21
2018-07-19T17:45:02.725Z,99736.63
2018-07-19T17:47:30.341Z,99733.95
2018-07-19T17:49:57.936Z,99735.16
2018-07-19T17:52:25.501Z,99742.92
2018-07-19T17:54:53.205Z,99737.06
2018-07-19T17:57:20.900Z,99744.67
2018-07-19T17:59:48.612Z,99742.77
2018-07-19T18:02:16.262Z,99743.02
2018-07-19T18:04:43.973Z,99739.34
2018-07-19T18:07:11.676Z,99746.02
2018-07-19T18:09:39.323Z,99742.31
2018-07-19T18:12:07.321Z,99742.70
2018-07-19T18:14:35.060Z,99743.87
2018-07-19T18:17:02.721Z,99744.41
2018-07-19T18:19:30.404Z,99744.66
2018-07-19T18:21:58.006Z,99747.44
2018-07-19T18:24:25.724Z,99752.48
2018-07-19T18:26:53.437Z,99751.27
2018-07-19T18:29:21.081Z,99750.43
2018-07-19T18:31:48.845Z,99750.68
2018-07-19T18:34:16.542Z,99746.70
2018-07-19T18:36:44.198Z,99754.56
2018-07-19T18:39:12.284Z,99750.16
2018-07-19T18:41:40.486Z,99751.09
2018-07-19T18:44:08.511Z,99754.22
2018-07-19T18:46:36.518Z,99749.66
2018-07-19T18:49:04.173Z,99755.30
2018-07-19T18:51:31.850Z,99765.09
2018-07-19T18:53:59.520Z,99765.41
2018-07-19T18:56:27.457Z,99767.41
2018-07-19T18:58:55.066Z,99769.25
2018-07-19T19:01:22.806Z,99771.78
2018-07-19T19:03:50.917Z,99765.14
2018-07-19T19:06:19.284Z,99770.11
2018-07-19T19:08:46.469Z,99772.27
2018-07-19T19:11:14.218Z,99773.20
2018-07-19T19:13:41.855Z,99782.72
2018-07-19T19:16:09.474Z,99781.45
2018-07-19T19:18:37.085Z,99779.11
2018-07-19T19:21:05.614Z,99785.37
2018-07-19T19:23:33.312Z,99784.33
2018-07-19T19:26:00.968Z,99782.52
2018-07-19T19:28:28.780Z,99788.48
2018-07-19T19:30:56.821Z,99786.66
2018-07-19T19:33:24.411Z,99788.02
2018-07-19T19:35:52.661Z,99791.83
2018-07-19T19:38:20.259Z,99795.13
2018-07-19T19:40:47.963Z,99788.25
2018-07-19T19:43:15.526Z,99792.31
2018-07-19T19:45:43.146Z,99789.40
2018-07-19T19:48:10.750Z,99787.56
2018-07-19T19:50:38.412Z,99795.40
2018-07-19T19:53:06.421Z,99796.77
2018-07-19T19:55:34.201Z,99799.50
2018-07-19T19:58:01.905Z,99798.48
2018-07-19T20:00:29.545Z,99803.09
2018-07-19T20:02:57.237Z,99802.36
2018-07-19T20:05:24.869Z,99801.56
2018-07-19T20:07:52.557Z,99803.22
2018-07-19T20:10:35.450Z,99803.51
2018-07-19T20:13:03.084Z,99806.21
2018-07-19T20:15:31.637Z,99802.47
2018-07-19T20:17:59.272Z,99806.77
2018-07-19T20:20:26.905Z,99808.12
2018-07-19T20:22:54.635Z,99804.38
2018-07-19T20:25:22.277Z,99809.23
2018-07-19T20:27:49.872Z,99808.17
2018-07-19T20:30:17.593Z,99807.89
2018-07-19T20:32:45.197Z,99804.67
2018-07-19T20:35:12.961Z,99803.86
2018-07-19T20:37:40.593Z,99811.13
2018-07-19T20:40:08.324Z,99803.34
2018-07-19T20:42:35.961Z,99806.58
2018-07-19T20:45:03.691Z,99809.25
2018-07-19T20:47:31.281Z,99811.37
2018-07-19T20:49:58.897Z,99807.10
2018-07-19T20:52:26.640Z,99805.77
2018-07-19T20:54:54.341Z,99804.16
2018-07-19T20:57:21.905Z,99801.20
2018-07-19T20:59:49.685Z,99803.89
2018-07-19T21:02:17.490Z,99804.16
2018-07-19T21:04:45.166Z,99801.45
2018-07-19T21:07:12.801Z,99799.88
2018-07-19T21:09:40.454Z,99803.59
2018-07-19T21:12:08.102Z,99802.23
2018-07-19T21:14:35.806Z,99807.59
2018-07-19T21:17:03.413Z,99806.50
2018-07-19T21:19:31.102Z,99809.73
2018-07-19T21:21:58.698Z,99813.20
2018-07-19T21:24:26.309Z,99815.85
2018-07-19T21:26:54.013Z,99812.09
2018-07-19T21:29:21.628Z,99814.20
2018-07-19T21:31:49.328Z,99813.95
2018-07-19T21:34:16.954Z,99818.75
2018-07-19T21:36:44.664Z,99825.13
2018-07-19T21:39:12.277Z,99821.38
2018-07-19T21:41:40.338Z,99826.97
2018-07-19T21:44:08.485Z,99820.75
2018-07-19T21:46:36.153Z,99816.98
2018-07-19T21:49:04.441Z,99819.85
2018-07-19T21:51:32.140Z,99818.02
2018-07-19T21:53:59.778Z,99821.46
2018-07-19T21:56:27.474Z,99822.80
2018-07-19T21:58:55.161Z,99817.18
2018-07-19T22:01:22.757Z,99815.00
2018-07-19T22:03:50.521Z,99812.25
2018-07-19T22:06:18.249Z,99814.36
2018-07-19T22:08:45.957Z,99814.89
2018-07-19T22:11:13.712Z,99813.02
2018-07-19T22:13:41.323Z,99809.23
2018-07-19T22:16:09.013Z,99811.10
2018-07-19T22:18:36.648Z,99810.83
2018-07-19T22:21:04.256Z,99814.73
2018-07-19T22:23:32.017Z,99817.88
2018-07-19T22:25:59.676Z,99814.94
2018-07-19T22:28:27.316Z,99815.16
2018-07-19T22:30:54.952Z,99815.15
2018-07-19T22:33:22.585Z,99812.92
2018-07-19T22:35:50.174Z,99812.06
2018-07-19T22:38:17.981Z,99807.73
2018-07-19T22:40:45.616Z,99814.83
2018-07-19T22:43:13.289Z,99808.47
2018-07-19T22:45:40.874Z,99810.35
2018-07-19T22:48:08.505Z,99813.80
2018-07-19T22:50:36.165Z,99813.73
2018-07-19T22:53:03.801Z,99818.27
2018-07-19T22:55:31.525Z,99821.20
2018-07-19T22:57:59.113Z,99824.67
2018-07-19T23:00:26.856Z,99824.38
2018-07-19T23:02:54.626Z,99817.71
2018-07-19T23:05:22.289Z,99816.57
2018-07-19T23:07:49.938Z,99817.30
2018-07-19T23:10:35.046Z,99818.36
2018-07-19T23:13:02.679Z,99819.05
2018-07-19T23:15:30.273Z,99821.68
2018-07-19T23:17:57.936Z,99820.96
2018-07-19T23:20:25.718Z,99818.81
2018-07-19T23:22:55.465Z,99819.75
2018-07-19T23:25:23.350Z,99823.25
2018-07-19T23:27:51.645Z,99820.91
2018-07-19T23:30:19.830Z,99818.67
2018-07-19T23:32:47.725Z,99813.14
2018-07-19T23:35:15.415Z,99819.85
2018-07-19T23:37:44.661Z,99815.95
2018-07-19T23:40:15.892Z,99818.87
2018-07-19T23:42:50.153Z,99818.30
2018-07-19T23:45:23.481Z,99824.92
2018-07-19T23:47:51.589Z,99822.26
2018-07-19T23:50:19.372Z,99819.80
2018-07-19T23:52:47.063Z,99820.73
2018-07-19T23:55:14.688Z,99816.71
2018-07-19T23:57:42.286Z,99812.52
